createdAt,value
2019-02-02T00:01:14.318Z,50.80
2019-02-02T00:03:41.091Z,61.07
2019-02-02T00:06:08.298Z,51.97
2019-02-02T00:08:35.150Z,40.73
2019-02-02T00:11:01.986Z,44.60
2019-02-02T00:13:29.124Z,41.83
2019-02-02T00:15:55.750Z,58.33
2019-02-02T00:18:22.435Z,45.43
2019-02-02T00:20:49.544Z,48.90
2019-02-02T00:23:16.843Z,55.03
2019-02-02T00:25:43.434Z,46.63
2019-02-02T00:28:10.430Z,48.08
2019-02-02T00:30:37.078Z,71.77
2019-02-02T00:33:03.709Z,47.70
2019-02-02T00:35:30.759Z,61.63
2019-02-02T00:37:57.408Z,56.00
2019-02-02T00:40:24.097Z,37.90
2019-02-02T00:42:50.849Z,50.92
2019-02-02T00:45:17.803Z,61.23
2019-02-02T00:47:44.631Z,45.93
2019-02-02T00:50:11.272Z,44.93
2019-02-02T00:52:38.142Z,59.90
2019-02-02T00:55:05.071Z,68.53
2019-02-02T00:57:32.138Z,46.13
2019-02-02T00:59:59.405Z,54.10
2019-02-02T01:02:26.770Z,65.78
2019-02-02T01:04:53.499Z,53.07
2019-02-02T01:07:20.200Z,41.60
2019-02-02T01:09:47.002Z,46.07
2019-02-02T01:12:13.757Z,45.27
2019-02-02T01:14:41.740Z,46.35
2019-02-02T01:17:08.667Z,39.37
2019-02-02T01:19:35.327Z,43.20
2019-02-02T01:22:02.103Z,47.87
2019-02-02T01:24:28.763Z,54.20
2019-02-02T01:26:55.624Z,45.05
2019-02-02T01:29:22.743Z,39.90
2019-02-02T01:31:49.575Z,43.30
2019-02-02T01:34:16.821Z,69.70
2019-02-02T01:36:43.717Z,66.57
2019-02-02T01:39:12.166Z,58.60
2019-02-02T01:41:39.903Z,82.67
2019-02-02T01:44:06.882Z,69.15
2019-02-02T01:46:33.531Z,72.87
2019-02-02T01:49:00.306Z,55.03
2019-02-02T01:51:27.297Z,44.13
2019-02-02T01:53:54.291Z,54.30
2019-02-02T01:56:20.954Z,51.00
2019-02-02T01:58:47.915Z,51.40
2019-02-02T02:01:14.748Z,42.27
2019-02-02T02:03:42.723Z,43.70
2019-02-02T02:06:09.465Z,43.43
2019-02-02T02:08:36.130Z,55.53
2019-02-02T02:11:02.765Z,53.97
2019-02-02T02:13:29.487Z,49.60
2019-02-02T02:15:56.491Z,41.40
2019-02-02T02:18:23.201Z,51.50
2019-02-02T02:20:49.802Z,57.13
2019-02-02T02:23:16.433Z,44.60
2019-02-02T02:25:44.384Z,52.62
2019-02-02T02:28:11.138Z,44.30
2019-02-02T02:30:37.745Z,41.20
2019-02-02T02:33:04.445Z,75.23
2019-02-02T02:35:31.420Z,46.80
2019-02-02T02:37:58.772Z,43.95
2019-02-02T02:48:34.378Z,47.17
2019-02-02T02:51:01.912Z,57.17
2019-02-02T02:53:29.531Z,56.25
2019-02-02T02:55:56.462Z,37.30
2019-02-02T02:58:23.388Z,47.60
2019-02-02T03:00:51.948Z,45.12
2019-02-02T03:03:20.099Z,36.75
2019-02-02T03:39:04.168Z,72.43
2019-02-02T03:41:31.744Z,61.70
2019-02-02T03:43:59.471Z,46.97
2019-02-02T03:46:27.145Z,63.80
2019-02-02T03:48:53.851Z,58.83
2019-02-02T03:51:21.723Z,62.33
2019-02-02T03:53:49.333Z,54.17
2019-02-02T03:56:17.531Z,61.63
2019-02-02T03:58:46.252Z,43.83
2019-02-02T04:01:12.969Z,48.77
2019-02-02T04:03:41.085Z,53.03
2019-02-02T04:06:08.582Z,53.23
2019-02-02T04:08:36.105Z,75.87
2019-02-02T04:11:03.605Z,69.27
2019-02-02T04:13:31.047Z,79.27
2019-02-02T04:15:59.167Z,62.53
2019-02-02T04:18:26.867Z,67.17
2019-02-02T04:20:53.651Z,44.40
2019-02-02T04:23:21.279Z,63.02
2019-02-02T04:25:48.159Z,50.03
2019-02-02T04:28:16.516Z,52.96
2019-02-02T04:30:43.242Z,59.87
2019-02-02T04:33:10.318Z,49.43
2019-02-02T04:35:37.277Z,52.17
2019-02-02T04:38:03.888Z,43.53
2019-02-02T04:40:33.048Z,64.13
2019-02-02T04:43:01.772Z,46.40
2019-02-02T04:45:28.847Z,44.13
2019-02-02T04:47:55.802Z,52.80
2019-02-02T04:50:22.479Z,43.37
2019-02-02T04:52:49.480Z,45.50
2019-02-02T04:55:23.256Z,55.98
2019-02-02T04:57:52.266Z,59.93
2019-02-02T05:00:18.903Z,38.80
2019-02-02T05:02:50.706Z,44.20
2019-02-02T05:05:17.295Z,40.03
2019-02-02T05:07:46.366Z,51.97
2019-02-02T05:10:13.029Z,51.33
2019-02-02T05:12:39.910Z,39.23
2019-02-02T05:15:08.800Z,51.60
2019-02-02T05:17:36.553Z,59.90
2019-02-02T05:22:51.075Z,47.07
2019-02-02T05:25:18.900Z,41.30
2019-02-02T05:28:02.895Z,46.50
2019-02-02T05:30:30.619Z,38.13
2019-02-02T05:32:59.557Z,36.73
2019-02-02T05:35:30.792Z,44.77
2019-02-02T05:37:58.781Z,44.63
2019-02-02T05:40:28.847Z,36.70
2019-02-02T05:43:00.660Z,41.50
2019-02-02T05:45:27.636Z,46.73
2019-02-02T05:47:57.188Z,38.75
2019-02-02T05:50:24.941Z,43.63
2019-02-02T05:52:52.693Z,38.57
2019-02-02T05:55:22.366Z,42.83
2019-02-02T05:57:52.014Z,49.63
2019-02-02T06:00:18.937Z,71.07
2019-02-02T06:02:45.653Z,43.40
2019-02-02T06:08:00.215Z,49.73
2019-02-02T06:10:29.884Z,38.07
2019-02-02T06:13:02.527Z,51.35
2019-02-02T06:15:33.588Z,38.38
2019-02-02T06:18:02.965Z,37.08
2019-02-02T06:23:19.179Z,39.03
2019-02-02T06:25:52.627Z,41.33
2019-02-02T06:28:20.379Z,38.77
2019-02-02T06:30:49.553Z,36.60
2019-02-02T06:33:30.386Z,39.43
2019-02-02T06:35:45.613Z,33.40
2019-02-02T06:38:12.572Z,29.90
2019-02-02T06:40:43.022Z,35.83
2019-02-02T06:43:11.742Z,44.63
2019-02-02T06:45:39.054Z,34.30
2019-02-02T06:48:09.721Z,30.17
2019-02-02T06:50:38.083Z,35.00
2019-02-02T06:53:13.645Z,47.33
2019-02-02T06:55:41.905Z,61.95
2019-02-02T06:58:09.639Z,47.70
2019-02-02T07:00:37.096Z,37.20
2019-02-02T07:03:03.743Z,31.07
2019-02-02T07:05:33.629Z,38.60
2019-02-02T07:07:59.131Z,36.70
2019-02-02T07:10:26.102Z,36.60
2019-02-02T07:12:52.712Z,33.18
2019-02-02T07:15:19.770Z,38.13
2019-02-02T07:17:46.678Z,65.70
2019-02-02T07:20:13.333Z,41.60
2019-02-02T07:22:40.274Z,35.20
2019-02-02T07:25:06.932Z,45.20
2019-02-02T07:27:33.827Z,34.37
2019-02-02T07:30:00.564Z,50.77
2019-02-02T07:32:27.899Z,39.87
2019-02-02T07:34:54.557Z,63.07
2019-02-02T07:37:21.263Z,38.37
2019-02-02T07:39:49.496Z,34.95
2019-02-02T07:42:16.285Z,36.63
2019-02-02T07:44:43.448Z,39.93
2019-02-02T07:47:10.309Z,37.20
2019-02-02T07:49:37.571Z,37.75
2019-02-02T07:52:04.577Z,37.63
2019-02-02T07:54:33.179Z,39.27
2019-02-02T07:57:00.148Z,46.98
2019-02-02T08:01:58.635Z,30.10
2019-02-02T08:04:26.470Z,31.52
2019-02-02T08:06:54.863Z,42.47
2019-02-02T08:09:22.082Z,29.17
2019-02-02T08:11:49.899Z,30.10
2019-02-02T08:14:16.836Z,30.30
2019-02-02T08:16:43.956Z,34.27
2019-02-02T08:19:10.742Z,38.93
2019-02-02T08:21:37.376Z,41.13
2019-02-02T08:24:04.667Z,38.13
2019-02-02T08:26:31.388Z,32.90
2019-02-02T08:28:58.747Z,42.15
2019-02-02T08:31:25.888Z,41.93
2019-02-02T08:33:52.925Z,40.97
2019-02-02T08:36:20.028Z,31.40
2019-02-02T08:38:47.201Z,36.57
2019-02-02T08:41:15.222Z,47.00
2019-02-02T08:43:41.944Z,29.83
2019-02-02T08:46:11.085Z,37.97
2019-02-02T08:48:43.493Z,33.87
2019-02-02T08:51:10.243Z,36.97
2019-02-02T08:53:36.961Z,43.63
2019-02-02T08:56:03.913Z,34.10
2019-02-02T08:58:30.867Z,32.90
2019-02-02T09:01:04.100Z,46.60
2019-02-02T09:03:28.960Z,32.30
2019-02-02T09:05:59.341Z,39.27
2019-02-02T09:08:28.651Z,35.83
2019-02-02T09:11:00.504Z,29.73
2019-02-02T09:13:27.405Z,32.28
2019-02-02T09:15:56.515Z,39.17
2019-02-02T09:18:23.510Z,31.00
2019-02-02T09:20:50.880Z,40.13
2019-02-02T09:23:18.674Z,41.83
2019-02-02T09:25:45.627Z,47.83
2019-02-02T09:28:13.262Z,34.73
2019-02-02T09:30:41.585Z,25.67
2019-02-02T09:33:11.946Z,38.93
2019-02-02T09:35:41.289Z,34.57
2019-02-02T09:38:16.682Z,28.20
2019-02-02T09:40:40.333Z,35.37
2019-02-02T09:43:09.986Z,35.23
2019-02-02T09:45:39.470Z,34.07
2019-02-02T09:48:11.803Z,30.43
2019-02-02T09:50:38.960Z,29.30
2019-02-02T09:53:08.982Z,35.67
2019-02-02T09:58:22.042Z,39.07
2019-02-02T10:00:49.892Z,37.67
2019-02-02T10:03:16.551Z,35.60
2019-02-02T10:05:46.974Z,33.40
2019-02-02T10:08:14.877Z,36.73
2019-02-02T10:10:43.997Z,39.73
2019-02-02T10:13:11.875Z,34.92
2019-02-02T10:15:40.025Z,33.15
2019-02-02T10:18:15.047Z,36.58
2019-02-02T10:20:49.503Z,26.90
2019-02-02T10:23:16.639Z,28.15
2019-02-02T10:25:48.980Z,32.15
2019-02-02T10:28:19.596Z,30.03
2019-02-02T10:30:49.379Z,29.43
2019-02-02T10:33:17.124Z,26.07
2019-02-02T10:35:45.215Z,26.47
2019-02-02T10:38:19.972Z,28.57
2019-02-02T10:40:46.720Z,24.47
2019-02-02T10:43:13.442Z,28.33
2019-02-02T10:45:42.963Z,23.60
2019-02-02T10:48:09.637Z,23.63
2019-02-02T10:50:39.398Z,25.60
2019-02-02T10:53:06.162Z,27.57
2019-02-02T10:55:36.914Z,21.93
2019-02-02T10:58:03.547Z,23.07
2019-02-02T11:00:31.930Z,19.07
2019-02-02T11:02:58.875Z,17.75
2019-02-02T11:05:25.882Z,19.10
2019-02-02T11:07:54.593Z,19.97
2019-02-02T11:10:21.621Z,22.83
2019-02-02T11:12:48.594Z,24.20
2019-02-02T11:15:15.357Z,22.33
2019-02-02T11:17:42.715Z,21.97
2019-02-02T11:20:09.570Z,21.03
2019-02-02T11:22:36.434Z,19.47
2019-02-02T11:25:03.192Z,19.07
2019-02-02T11:27:30.711Z,24.25
2019-02-02T11:29:57.887Z,25.23
2019-02-02T11:32:24.545Z,20.10
2019-02-02T11:34:51.360Z,20.90
2019-02-02T11:37:18.035Z,19.93
2019-02-02T11:39:44.670Z,21.87
2019-02-02T11:42:12.286Z,18.77
2019-02-02T11:44:38.985Z,17.02
2019-02-02T11:47:05.673Z,17.30
2019-02-02T11:49:32.587Z,19.77
2019-02-02T11:52:01.433Z,18.50
2019-02-02T11:54:28.120Z,15.87
2019-02-02T11:56:54.800Z,18.03
2019-02-02T11:59:21.908Z,18.43
2019-02-02T12:01:49.094Z,19.17
2019-02-02T12:04:16.090Z,19.93
2019-02-02T12:06:43.197Z,22.15
2019-02-02T12:09:09.914Z,23.50
2019-02-02T12:11:36.885Z,17.77
2019-02-02T12:14:03.891Z,15.80
2019-02-02T12:16:31.368Z,17.97
2019-02-02T12:18:58.090Z,16.20
2019-02-02T12:21:24.935Z,10.93
2019-02-02T12:23:52.055Z,12.57
2019-02-02T12:26:19.283Z,10.30
2019-02-02T12:28:46.187Z,8.27
2019-02-02T12:31:13.125Z,12.87
2019-02-02T12:33:40.098Z,8.50
2019-02-02T12:36:07.359Z,8.55
2019-02-02T12:41:05.215Z,7.47
2019-02-02T12:43:32.033Z,7.93
2019-02-02T12:46:00.950Z,5.67
2019-02-02T12:48:27.943Z,8.60
2019-02-02T12:50:57.378Z,4.87
2019-02-02T12:53:26.499Z,4.87
2019-02-02T12:55:53.806Z,6.00
2019-02-02T12:58:23.017Z,6.77
2019-02-02T13:00:53.590Z,4.80
2019-02-02T13:03:20.249Z,5.47
2019-02-02T13:05:47.182Z,5.23
2019-02-02T13:08:14.153Z,7.20
2019-02-02T13:10:41.123Z,5.20
2019-02-02T13:13:08.116Z,7.30
2019-02-02T13:15:35.195Z,5.37
2019-02-02T13:18:02.166Z,4.57
2019-02-02T13:20:28.923Z,5.83
2019-02-02T13:22:58.064Z,3.90
2019-02-02T13:25:24.815Z,3.40
2019-02-02T13:27:51.877Z,3.03
2019-02-02T13:30:18.474Z,6.70
2019-02-02T13:32:49.976Z,3.50
2019-02-02T13:35:14.099Z,3.47
2019-02-02T13:37:41.285Z,3.17
2019-02-02T13:40:11.965Z,2.92
2019-02-02T13:42:40.906Z,3.77
2019-02-02T13:45:10.815Z,3.18
2019-02-02T13:47:41.697Z,2.85
2019-02-02T13:50:09.899Z,2.77
2019-02-02T13:52:37.830Z,3.07
2019-02-02T13:55:07.582Z,2.83
2019-02-02T13:57:37.743Z,2.87
2019-02-02T14:00:06.020Z,2.83
2019-02-02T14:02:36.923Z,3.40
2019-02-02T14:05:04.566Z,4.77
2019-02-02T14:07:32.500Z,3.33
2019-02-02T14:12:48.551Z,4.13
2019-02-02T14:15:16.197Z,3.47
2019-02-02T14:17:47.911Z,3.27
2019-02-02T14:20:15.863Z,4.07
2019-02-02T14:22:43.462Z,3.70
2019-02-02T14:25:13.251Z,3.42
2019-02-02T14:27:43.815Z,5.17
2019-02-02T14:30:13.208Z,3.92
2019-02-02T14:32:41.551Z,3.90
2019-02-02T14:35:09.290Z,3.80
2019-02-02T14:37:38.529Z,4.27
2019-02-02T14:40:05.516Z,3.60
2019-02-02T14:42:35.650Z,4.03
2019-02-02T14:45:17.172Z,3.80
2019-02-02T14:47:44.371Z,2.62
2019-02-02T14:50:13.659Z,1.80
2019-02-02T14:52:43.258Z,1.90
2019-02-02T14:55:10.201Z,1.83
2019-02-02T14:57:38.844Z,1.83
2019-02-02T15:00:06.006Z,1.73
2019-02-02T15:02:41.553Z,1.75
2019-02-02T15:05:07.855Z,1.60
2019-02-02T15:07:35.606Z,2.60
2019-02-02T15:10:06.911Z,1.60
2019-02-02T15:12:37.218Z,1.80
2019-02-02T15:15:07.610Z,1.87
2019-02-02T15:17:38.351Z,1.30
2019-02-02T15:20:11.786Z,2.13
2019-02-02T15:22:38.821Z,1.80
2019-02-02T15:25:12.236Z,2.20
2019-02-02T15:27:38.797Z,1.60
2019-02-02T15:30:07.958Z,3.13
2019-02-02T15:32:34.884Z,2.37
2019-02-02T15:35:02.799Z,1.83
2019-02-02T15:40:17.991Z,1.62
2019-02-02T15:42:50.734Z,3.87
2019-02-02T15:45:17.184Z,2.30
2019-02-02T15:47:44.117Z,2.53
2019-02-02T15:50:11.143Z,2.97
2019-02-02T15:52:40.370Z,2.40
2019-02-02T15:55:10.167Z,2.47
2019-02-02T15:57:39.968Z,2.27
2019-02-02T16:00:06.639Z,3.50
2019-02-02T16:02:39.552Z,3.08
2019-02-02T16:05:06.383Z,2.63
2019-02-02T16:07:35.952Z,2.83
2019-02-02T16:10:06.211Z,2.77
2019-02-02T16:12:34.679Z,2.90
2019-02-02T16:15:01.430Z,2.60
2019-02-02T16:17:31.473Z,4.67
2019-02-02T16:19:58.459Z,2.30
2019-02-02T16:22:25.228Z,2.03
2019-02-02T16:24:52.264Z,2.27
2019-02-02T16:27:35.521Z,2.42
2019-02-02T16:30:10.019Z,2.50
2019-02-02T16:32:37.381Z,3.07
2019-02-02T16:35:05.031Z,2.05
2019-02-02T16:37:36.326Z,2.50
2019-02-02T16:40:04.062Z,2.33
2019-02-02T16:42:31.270Z,2.27
2019-02-02T16:45:00.822Z,2.17
2019-02-02T16:47:30.768Z,2.13
2019-02-02T16:49:59.460Z,3.00
2019-02-02T16:52:32.412Z,2.90
2019-02-02T16:55:02.447Z,5.07
2019-02-02T16:57:31.619Z,3.70
2019-02-02T16:59:59.264Z,3.77
2019-02-02T17:02:26.692Z,3.83
2019-02-02T17:04:55.900Z,4.47
2019-02-02T17:07:25.317Z,4.00
2019-02-02T17:09:52.397Z,4.53
2019-02-02T17:15:06.074Z,4.40
2019-02-02T17:17:49.764Z,3.73
2019-02-02T17:20:21.172Z,4.23
2019-02-02T17:22:49.324Z,5.53
2019-02-02T17:25:18.073Z,3.40
2019-02-02T17:27:45.728Z,6.20
2019-02-02T17:30:13.123Z,4.50
2019-02-02T17:32:42.582Z,4.73
2019-02-02T17:35:10.175Z,6.93
2019-02-02T17:37:39.501Z,6.63
2019-02-02T17:40:24.489Z,5.67
2019-02-02T17:42:56.105Z,5.47
2019-02-02T17:45:23.487Z,5.27
2019-02-02T17:47:51.185Z,4.20
2019-02-02T17:50:18.898Z,4.07
2019-02-02T17:52:47.297Z,4.40
2019-02-02T17:55:18.212Z,4.10
2019-02-02T17:57:45.936Z,5.47
2019-02-02T18:00:15.638Z,6.27
2019-02-02T18:05:32.870Z,4.93
2019-02-02T18:08:03.549Z,6.50
2019-02-02T18:10:31.410Z,5.20
2019-02-02T18:13:02.419Z,4.67
2019-02-02T18:15:33.392Z,5.47
2019-02-02T18:18:03.155Z,6.47
2019-02-02T18:20:30.904Z,8.23
2019-02-02T18:25:48.901Z,9.10
2019-02-02T18:31:06.650Z,9.53
2019-02-02T18:33:36.658Z,10.53
2019-02-02T18:36:05.916Z,13.38
2019-02-02T18:38:35.672Z,19.17
2019-02-02T18:41:02.646Z,12.40
2019-02-02T18:43:29.700Z,10.70
2019-02-02T18:48:44.271Z,20.30
2019-02-02T18:51:13.923Z,13.53
2019-02-02T18:53:40.971Z,10.87
2019-02-02T18:56:11.528Z,15.83
2019-02-02T18:58:38.393Z,11.13
2019-02-02T19:01:05.327Z,10.67
2019-02-02T19:03:35.960Z,10.60
2019-02-02T19:06:10.352Z,16.05
2019-02-02T19:08:38.884Z,9.20
2019-02-02T19:11:08.687Z,8.33
2019-02-02T19:13:35.313Z,10.23
2019-02-02T19:18:48.475Z,14.03
2019-02-02T19:21:19.142Z,13.30
2019-02-02T19:23:47.138Z,11.77
2019-02-02T19:26:17.043Z,11.03
2019-02-02T19:28:45.638Z,10.38
2019-02-02T19:31:16.096Z,13.17
2019-02-02T19:33:44.837Z,12.77
2019-02-02T19:36:12.972Z,14.25
2019-02-02T19:38:40.396Z,12.47
2019-02-02T19:41:10.626Z,10.80
2019-02-02T19:43:39.701Z,9.87
2019-02-02T19:46:09.231Z,12.83
2019-02-02T19:48:37.135Z,8.93
2019-02-02T19:51:05.927Z,17.33
2019-02-02T19:53:32.767Z,11.07
2019-02-02T19:56:01.839Z,15.63
2019-02-02T19:58:31.719Z,12.63
2019-02-02T20:01:03.221Z,12.87
2019-02-02T20:03:29.895Z,10.93
2019-02-02T20:05:56.537Z,13.40
2019-02-02T20:08:25.178Z,12.60
2019-02-02T20:10:53.351Z,13.35
2019-02-02T20:13:20.052Z,12.95
2019-02-02T20:15:49.379Z,10.08
2019-02-02T20:18:17.845Z,10.20
2019-02-02T20:20:44.406Z,11.68
2019-02-02T20:23:13.290Z,12.23
2019-02-02T20:25:43.781Z,12.85
2019-02-02T20:28:12.737Z,10.47
2019-02-02T20:30:39.649Z,10.33
2019-02-02T20:33:06.279Z,12.00
2019-02-02T20:35:40.915Z,10.85
2019-02-02T20:38:02.263Z,14.73
2019-02-02T20:40:29.940Z,17.47
2019-02-02T20:42:58.251Z,9.53
2019-02-02T20:45:24.966Z,9.47
2019-02-02T20:47:51.732Z,9.17
2019-02-02T20:50:19.525Z,9.03
2019-02-02T20:52:48.017Z,11.70
2019-02-02T20:55:15.874Z,14.70
2019-02-02T20:57:45.894Z,17.77
2019-02-02T21:00:14.746Z,20.90
2019-02-02T21:02:42.677Z,10.08
2019-02-02T21:05:16.305Z,11.53
2019-02-02T21:07:44.304Z,14.80
2019-02-02T21:10:11.424Z,17.00
2019-02-02T21:12:39.003Z,23.43
2019-02-02T21:15:07.070Z,10.13
2019-02-02T21:17:34.082Z,9.47
2019-02-02T21:20:00.764Z,12.90
2019-02-02T21:22:30.368Z,23.23
2019-02-02T21:24:58.090Z,13.50
2019-02-02T21:27:25.291Z,10.53
2019-02-02T21:29:55.789Z,13.53
2019-02-02T21:32:23.646Z,9.98
2019-02-02T21:34:51.329Z,11.33
2019-02-02T21:37:18.421Z,11.13
2019-02-02T21:39:45.919Z,16.45
2019-02-02T21:42:13.341Z,23.03
2019-02-02T21:44:45.835Z,11.40
2019-02-02T21:47:16.750Z,12.40
2019-02-02T21:52:36.246Z,21.00
2019-02-02T21:55:02.904Z,20.07
2019-02-02T21:57:30.046Z,14.90
2019-02-02T21:59:57.243Z,10.10
2019-02-02T22:02:26.161Z,10.70
2019-02-02T22:05:03.778Z,11.13
2019-02-02T22:07:32.261Z,12.57
2019-02-02T22:10:02.114Z,10.80
2019-02-02T22:12:30.346Z,16.60
2019-02-02T22:14:57.233Z,15.40
2019-02-02T22:17:27.936Z,19.67
2019-02-02T22:19:54.626Z,10.63
2019-02-02T22:22:21.841Z,9.30
2019-02-02T22:24:51.190Z,13.00
2019-02-02T22:27:17.613Z,13.58
2019-02-02T22:29:45.214Z,12.83
2019-02-02T22:32:12.696Z,8.70
2019-02-02T22:34:40.466Z,10.53
2019-02-02T22:37:07.660Z,10.40
2019-02-02T22:39:38.300Z,10.40
2019-02-02T22:42:19.588Z,16.53
2019-02-02T22:47:49.583Z,10.87
2019-02-02T22:50:16.879Z,11.63
2019-02-02T22:52:44.188Z,10.03
2019-02-02T22:55:13.316Z,14.07
2019-02-02T22:57:42.388Z,10.53
2019-02-02T23:00:09.381Z,17.00
2019-02-02T23:02:36.892Z,14.67
2019-02-02T23:05:04.071Z,10.53
2019-02-02T23:07:31.917Z,10.93
2019-02-02T23:09:58.867Z,9.50
2019-02-02T23:12:26.312Z,12.78
2019-02-02T23:14:53.397Z,14.17
2019-02-02T23:17:20.387Z,9.50
2019-02-02T23:19:48.228Z,12.23
2019-02-02T23:22:15.634Z,8.97
2019-02-02T23:24:42.864Z,11.70
2019-02-02T23:27:09.729Z,12.10
2019-02-02T23:29:37.328Z,8.80
2019-02-02T23:32:04.627Z,10.40
2019-02-02T23:34:31.536Z,11.43
2019-02-02T23:36:58.300Z,9.97
2019-02-02T23:39:26.125Z,13.72
2019-02-02T23:41:52.904Z,13.20
2019-02-02T23:44:20.704Z,16.43
2019-02-02T23:46:49.254Z,15.67
2019-02-02T23:49:17.169Z,13.23
2019-02-02T23:51:44.964Z,11.10
2019-02-02T23:54:12.981Z,11.80
2019-02-02T23:56:40.192Z,15.37
